Preston, Arkansas
Current Conditions -  °F | °C
As of 2:58 PM on Thursday 20 Nov 2014 (Local Time) from KLRF Reporting Station
Scattered Clouds Scattered Clouds  
Wind Chill: 56°   Ceiling: Unl
Heat Index: 56°   Visibility: 10mi
Dew Point: 30°   Wind: 7mph
Humidity: 37%   Direction: 100°E
Pressure: 30.16"   Gusts: NA
Location:  35.0822°N, 92.366°W
Report Text: KLRF 202058Z AUTO 10006KT 10SM FEW044 SCT055 13/M01 A3016 RMK AO2 SLP218 T01321012 57022
Loading
Personal Weather Stations






























Interactive Weather Map New forecast layout! Learn more

10-Day Weather Forecast

Advertisements
Track Severe Weather on mobile